sensor_id;sensor_type;location;lat;lon;timestamp;P1;durP1;ratioP1;P2;durP2;ratioP2
79759;SDS011;69248;42.138;24.742;2023-05-23T00:00:28;6.28;;;4.47;;
79759;SDS011;69248;42.138;24.742;2023-05-23T00:02:57;4.97;;;4.25;;
79759;SDS011;69248;42.138;24.742;2023-05-23T00:05:25;7.10;;;4.00;;
79759;SDS011;69248;42.138;24.742;2023-05-23T00:07:53;4.50;;;4.10;;
79759;SDS011;69248;42.138;24.742;2023-05-23T00:10:21;9.98;;;4.40;;
79759;SDS011;69248;42.138;24.742;2023-05-23T00:12:48;6.53;;;3.92;;
79759;SDS011;69248;42.138;24.742;2023-05-23T00:15:17;10.55;;;5.22;;
79759;SDS011;69248;42.138;24.742;2023-05-23T00:17:44;5.92;;;4.37;;
79759;SDS011;69248;42.138;24.742;2023-05-23T00:20:12;6.87;;;4.65;;
79759;SDS011;69248;42.138;24.742;2023-05-23T00:22:40;5.87;;;4.35;;
79759;SDS011;69248;42.138;24.742;2023-05-23T00:25:08;5.55;;;4.35;;
79759;SDS011;69248;42.138;24.742;2023-05-23T00:27:36;10.15;;;4.55;;
79759;SDS011;69248;42.138;24.742;2023-05-23T00:30:03;4.75;;;4.22;;
79759;SDS011;69248;42.138;24.742;2023-05-23T00:32:31;5.83;;;4.25;;
79759;SDS011;69248;42.138;24.742;2023-05-23T00:35:00;4.70;;;3.87;;
79759;SDS011;69248;42.138;24.742;2023-05-23T00:37:27;5.47;;;4.12;;
79759;SDS011;69248;42.138;24.742;2023-05-23T00:39:55;8.10;;;4.30;;
79759;SDS011;69248;42.138;24.742;2023-05-23T00:42:22;6.47;;;4.40;;
79759;SDS011;69248;42.138;24.742;2023-05-23T00:44:50;8.45;;;4.87;;
79759;SDS011;69248;42.138;24.742;2023-05-23T00:47:18;8.35;;;5.17;;
79759;SDS011;69248;42.138;24.742;2023-05-23T00:49:45;6.15;;;4.62;;
79759;SDS011;69248;42.138;24.742;2023-05-23T00:52:13;6.53;;;4.53;;
79759;SDS011;69248;42.138;24.742;2023-05-23T00:54:41;8.20;;;4.85;;
79759;SDS011;69248;42.138;24.742;2023-05-23T00:57:08;10.32;;;5.47;;
79759;SDS011;69248;42.138;24.742;2023-05-23T00:59:36;6.92;;;5.00;;
79759;SDS011;69248;42.138;24.742;2023-05-23T01:02:04;6.05;;;5.03;;
79759;SDS011;69248;42.138;24.742;2023-05-23T01:04:32;5.83;;;4.62;;
79759;SDS011;69248;42.138;24.742;2023-05-23T01:07:00;7.58;;;5.47;;
79759;SDS011;69248;42.138;24.742;2023-05-23T01:09:28;7.85;;;4.85;;
79759;SDS011;69248;42.138;24.742;2023-05-23T01:17:53;6.37;;;5.10;;
79759;SDS011;69248;42.138;24.742;2023-05-23T01:20:46;13.13;;;4.95;;
79759;SDS011;69248;42.138;24.742;2023-05-23T01:23:12;8.63;;;4.70;;
79759;SDS011;69248;42.138;24.742;2023-05-23T01:28:38;7.33;;;5.05;;
79759;SDS011;69248;42.138;24.742;2023-05-23T01:31:12;10.40;;;5.30;;
79759;SDS011;69248;42.138;24.742;2023-05-23T01:33:42;6.55;;;5.08;;
79759;SDS011;69248;42.138;24.742;2023-05-23T01:36:12;5.50;;;4.83;;
79759;SDS011;69248;42.138;24.742;2023-05-23T01:38:40;8.50;;;5.17;;
79759;SDS011;69248;42.138;24.742;2023-05-23T01:41:07;6.58;;;4.62;;
79759;SDS011;69248;42.138;24.742;2023-05-23T01:43:35;13.48;;;5.65;;
79759;SDS011;69248;42.138;24.742;2023-05-23T01:46:03;13.08;;;5.25;;
79759;SDS011;69248;42.138;24.742;2023-05-23T01:48:32;4.72;;;4.33;;
79759;SDS011;69248;42.138;24.742;2023-05-23T01:51:00;9.33;;;5.42;;
79759;SDS011;69248;42.138;24.742;2023-05-23T01:53:28;4.53;;;4.12;;
79759;SDS011;69248;42.138;24.742;2023-05-23T01:55:57;5.72;;;4.50;;
79759;SDS011;69248;42.138;24.742;2023-05-23T01:58:27;5.53;;;4.55;;
79759;SDS011;69248;42.138;24.742;2023-05-23T02:00:55;6.17;;;5.00;;
79759;SDS011;69248;42.138;24.742;2023-05-23T02:03:22;5.50;;;4.72;;
79759;SDS011;69248;42.138;24.742;2023-05-23T02:05:50;6.05;;;4.67;;
79759;SDS011;69248;42.138;24.742;2023-05-23T02:08:17;8.05;;;5.50;;
79759;SDS011;69248;42.138;24.742;2023-05-23T02:10:45;7.12;;;5.75;;
79759;SDS011;69248;42.138;24.742;2023-05-23T02:13:12;7.17;;;4.83;;
79759;SDS011;69248;42.138;24.742;2023-05-23T02:15:40;9.70;;;4.62;;
79759;SDS011;69248;42.138;24.742;2023-05-23T02:18:08;10.68;;;4.87;;
79759;SDS011;69248;42.138;24.742;2023-05-23T02:20:35;10.32;;;4.67;;
79759;SDS011;69248;42.138;24.742;2023-05-23T02:23:04;5.83;;;5.22;;
79759;SDS011;69248;42.138;24.742;2023-05-23T02:25:31;9.38;;;4.97;;
79759;SDS011;69248;42.138;24.742;2023-05-23T02:27:59;8.20;;;5.00;;
79759;SDS011;69248;42.138;24.742;2023-05-23T02:30:26;8.00;;;4.92;;
79759;SDS011;69248;42.138;24.742;2023-05-23T02:32:54;7.37;;;5.20;;
79759;SDS011;69248;42.138;24.742;2023-05-23T02:35:22;7.25;;;5.22;;
79759;SDS011;69248;42.138;24.742;2023-05-23T02:37:50;9.70;;;5.15;;
79759;SDS011;69248;42.138;24.742;2023-05-23T02:40:18;6.85;;;5.50;;
79759;SDS011;69248;42.138;24.742;2023-05-23T02:42:45;8.88;;;5.05;;
79759;SDS011;69248;42.138;24.742;2023-05-23T02:45:13;6.08;;;5.28;;
79759;SDS011;69248;42.138;24.742;2023-05-23T02:47:40;5.25;;;4.72;;
79759;SDS011;69248;42.138;24.742;2023-05-23T02:50:08;11.57;;;6.05;;
79759;SDS011;69248;42.138;24.742;2023-05-23T02:52:36;17.35;;;5.80;;
79759;SDS011;69248;42.138;24.742;2023-05-23T02:55:04;10.98;;;5.45;;
79759;SDS011;69248;42.138;24.742;2023-05-23T02:57:32;6.12;;;4.87;;
79759;SDS011;69248;42.138;24.742;2023-05-23T02:59:59;6.72;;;5.53;;
79759;SDS011;69248;42.138;24.742;2023-05-23T03:02:27;6.58;;;5.20;;
79759;SDS011;69248;42.138;24.742;2023-05-23T03:04:54;5.00;;;4.47;;
79759;SDS011;69248;42.138;24.742;2023-05-23T03:07:22;9.73;;;4.45;;
79759;SDS011;69248;42.138;24.742;2023-05-23T03:09:50;7.65;;;5.67;;
79759;SDS011;69248;42.138;24.742;2023-05-23T03:12:18;7.08;;;4.60;;
79759;SDS011;69248;42.138;24.742;2023-05-23T03:14:45;9.53;;;4.83;;
79759;SDS011;69248;42.138;24.742;2023-05-23T03:17:13;9.83;;;5.53;;
79759;SDS011;69248;42.138;24.742;2023-05-23T03:19:40;9.23;;;5.72;;
79759;SDS011;69248;42.138;24.742;2023-05-23T03:22:08;8.78;;;5.50;;
79759;SDS011;69248;42.138;24.742;2023-05-23T03:24:35;8.83;;;6.25;;
79759;SDS011;69248;42.138;24.742;2023-05-23T03:27:03;11.60;;;6.00;;
79759;SDS011;69248;42.138;24.742;2023-05-23T03:29:31;11.80;;;6.35;;
79759;SDS011;69248;42.138;24.742;2023-05-23T03:31:58;10.30;;;6.30;;
79759;SDS011;69248;42.138;24.742;2023-05-23T03:34:26;15.03;;;7.83;;
79759;SDS011;69248;42.138;24.742;2023-05-23T03:36:53;13.35;;;7.05;;
79759;SDS011;69248;42.138;24.742;2023-05-23T03:39:21;13.48;;;6.92;;
79759;SDS011;69248;42.138;24.742;2023-05-23T03:41:49;12.25;;;7.25;;
79759;SDS011;69248;42.138;24.742;2023-05-23T03:44:16;10.38;;;7.17;;
79759;SDS011;69248;42.138;24.742;2023-05-23T03:46:44;9.93;;;6.25;;
79759;SDS011;69248;42.138;24.742;2023-05-23T03:49:11;7.87;;;5.75;;
79759;SDS011;69248;42.138;24.742;2023-05-23T03:51:39;9.83;;;6.00;;
79759;SDS011;69248;42.138;24.742;2023-05-23T03:54:07;8.25;;;5.40;;
79759;SDS011;69248;42.138;24.742;2023-05-23T03:56:34;7.42;;;5.20;;
79759;SDS011;69248;42.138;24.742;2023-05-23T03:59:02;8.38;;;5.42;;
79759;SDS011;69248;42.138;24.742;2023-05-23T04:01:30;6.78;;;5.40;;
79759;SDS011;69248;42.138;24.742;2023-05-23T04:03:57;7.75;;;4.83;;
79759;SDS011;69248;42.138;24.742;2023-05-23T04:06:25;7.37;;;4.28;;
79759;SDS011;69248;42.138;24.742;2023-05-23T04:08:54;6.70;;;4.00;;
79759;SDS011;69248;42.138;24.742;2023-05-23T04:11:22;6.80;;;4.30;;
79759;SDS011;69248;42.138;24.742;2023-05-23T04:13:49;6.20;;;3.90;;
79759;SDS011;69248;42.138;24.742;2023-05-23T04:16:18;4.40;;;3.60;;
79759;SDS011;69248;42.138;24.742;2023-05-23T04:18:47;4.20;;;3.42;;
79759;SDS011;69248;42.138;24.742;2023-05-23T04:21:14;7.70;;;3.98;;
79759;SDS011;69248;42.138;24.742;2023-05-23T04:23:42;9.38;;;3.65;;
79759;SDS011;69248;42.138;24.742;2023-05-23T04:26:09;8.03;;;4.05;;
79759;SDS011;69248;42.138;24.742;2023-05-23T04:28:37;6.20;;;4.08;;
79759;SDS011;69248;42.138;24.742;2023-05-23T04:31:05;8.73;;;4.53;;
79759;SDS011;69248;42.138;24.742;2023-05-23T04:33:32;13.15;;;5.10;;
79759;SDS011;69248;42.138;24.742;2023-05-23T04:36:00;6.40;;;4.62;;
79759;SDS011;69248;42.138;24.742;2023-05-23T04:38:28;6.25;;;4.72;;
79759;SDS011;69248;42.138;24.742;2023-05-23T04:40:56;9.68;;;4.33;;
79759;SDS011;69248;42.138;24.742;2023-05-23T04:43:24;5.95;;;4.97;;
79759;SDS011;69248;42.138;24.742;2023-05-23T04:45:54;13.03;;;4.50;;
79759;SDS011;69248;42.138;24.742;2023-05-23T04:48:22;7.17;;;4.80;;
79759;SDS011;69248;42.138;24.742;2023-05-23T04:50:51;10.93;;;4.90;;
79759;SDS011;69248;42.138;24.742;2023-05-23T04:53:21;17.52;;;4.58;;
79759;SDS011;69248;42.138;24.742;2023-05-23T04:55:48;16.23;;;5.65;;
79759;SDS011;69248;42.138;24.742;2023-05-23T04:58:16;8.00;;;4.37;;
79759;SDS011;69248;42.138;24.742;2023-05-23T05:00:43;7.85;;;4.05;;
79759;SDS011;69248;42.138;24.742;2023-05-23T05:03:11;9.93;;;4.62;;
79759;SDS011;69248;42.138;24.742;2023-05-23T05:05:38;8.50;;;4.17;;
79759;SDS011;69248;42.138;24.742;2023-05-23T05:08:06;7.92;;;4.20;;
79759;SDS011;69248;42.138;24.742;2023-05-23T05:10:34;13.58;;;4.87;;
79759;SDS011;69248;42.138;24.742;2023-05-23T05:13:01;10.50;;;4.70;;
79759;SDS011;69248;42.138;24.742;2023-05-23T05:15:29;9.23;;;4.25;;
79759;SDS011;69248;42.138;24.742;2023-05-23T05:17:56;11.40;;;5.00;;
79759;SDS011;69248;42.138;24.742;2023-05-23T05:20:24;6.58;;;4.10;;
79759;SDS011;69248;42.138;24.742;2023-05-23T05:22:56;9.43;;;4.55;;
79759;SDS011;69248;42.138;24.742;2023-05-23T05:25:24;6.50;;;3.98;;
79759;SDS011;69248;42.138;24.742;2023-05-23T05:27:52;7.83;;;4.70;;
79759;SDS011;69248;42.138;24.742;2023-05-23T05:30:20;10.53;;;4.30;;
79759;SDS011;69248;42.138;24.742;2023-05-23T05:32:47;8.30;;;4.35;;
79759;SDS011;69248;42.138;24.742;2023-05-23T05:35:16;10.98;;;5.42;;
79759;SDS011;69248;42.138;24.742;2023-05-23T05:37:43;9.10;;;5.55;;
79759;SDS011;69248;42.138;24.742;2023-05-23T05:40:11;10.58;;;5.00;;
79759;SDS011;69248;42.138;24.742;2023-05-23T05:42:38;11.70;;;7.28;;
79759;SDS011;69248;42.138;24.742;2023-05-23T05:45:06;14.33;;;5.83;;
79759;SDS011;69248;42.138;24.742;2023-05-23T05:47:34;11.43;;;7.00;;
79759;SDS011;69248;42.138;24.742;2023-05-23T05:50:08;20.40;;;7.92;;
79759;SDS011;69248;42.138;24.742;2023-05-23T05:52:34;19.45;;;8.13;;
79759;SDS011;69248;42.138;24.742;2023-05-23T05:55:04;8.98;;;5.55;;
79759;SDS011;69248;42.138;24.742;2023-05-23T05:57:33;14.75;;;7.17;;
79759;SDS011;69248;42.138;24.742;2023-05-23T06:00:02;9.65;;;5.92;;
79759;SDS011;69248;42.138;24.742;2023-05-23T06:02:32;11.00;;;6.73;;
79759;SDS011;69248;42.138;24.742;2023-05-23T06:05:01;9.00;;;5.53;;
79759;SDS011;69248;42.138;24.742;2023-05-23T06:07:29;12.75;;;5.70;;
79759;SDS011;69248;42.138;24.742;2023-05-23T06:09:57;13.08;;;5.65;;
79759;SDS011;69248;42.138;24.742;2023-05-23T06:12:24;12.82;;;5.12;;
79759;SDS011;69248;42.138;24.742;2023-05-23T06:14:51;10.48;;;5.42;;
79759;SDS011;69248;42.138;24.742;2023-05-23T06:17:19;17.75;;;6.03;;
79759;SDS011;69248;42.138;24.742;2023-05-23T06:19:47;15.43;;;6.12;;
79759;SDS011;69248;42.138;24.742;2023-05-23T06:22:14;11.70;;;6.40;;
79759;SDS011;69248;42.138;24.742;2023-05-23T06:24:42;11.15;;;6.17;;
79759;SDS011;69248;42.138;24.742;2023-05-23T06:27:10;13.95;;;6.05;;
79759;SDS011;69248;42.138;24.742;2023-05-23T06:29:39;8.93;;;5.60;;
79759;SDS011;69248;42.138;24.742;2023-05-23T06:32:07;12.68;;;7.80;;
79759;SDS011;69248;42.138;24.742;2023-05-23T06:34:34;13.90;;;7.00;;
79759;SDS011;69248;42.138;24.742;2023-05-23T06:37:02;6.95;;;5.17;;
79759;SDS011;69248;42.138;24.742;2023-05-23T06:39:29;12.18;;;5.67;;
79759;SDS011;69248;42.138;24.742;2023-05-23T06:41:57;13.38;;;5.08;;
79759;SDS011;69248;42.138;24.742;2023-05-23T06:44:25;10.58;;;5.90;;
79759;SDS011;69248;42.138;24.742;2023-05-23T06:46:53;9.03;;;5.83;;
79759;SDS011;69248;42.138;24.742;2023-05-23T06:49:22;8.13;;;5.05;;
79759;SDS011;69248;42.138;24.742;2023-05-23T06:51:50;11.50;;;5.58;;
79759;SDS011;69248;42.138;24.742;2023-05-23T06:54:18;21.07;;;6.35;;
79759;SDS011;69248;42.138;24.742;2023-05-23T06:56:46;9.25;;;5.45;;
79759;SDS011;69248;42.138;24.742;2023-05-23T06:59:13;9.80;;;5.10;;
79759;SDS011;69248;42.138;24.742;2023-05-23T07:01:41;9.38;;;4.78;;
79759;SDS011;69248;42.138;24.742;2023-05-23T07:04:08;9.98;;;5.33;;
79759;SDS011;69248;42.138;24.742;2023-05-23T07:06:37;10.40;;;5.50;;
79759;SDS011;69248;42.138;24.742;2023-05-23T07:09:04;8.83;;;5.40;;
79759;SDS011;69248;42.138;24.742;2023-05-23T07:11:32;9.65;;;5.47;;
79759;SDS011;69248;42.138;24.742;2023-05-23T07:14:00;11.48;;;5.67;;
79759;SDS011;69248;42.138;24.742;2023-05-23T07:16:27;13.22;;;5.85;;
79759;SDS011;69248;42.138;24.742;2023-05-23T07:18:55;13.98;;;5.15;;
79759;SDS011;69248;42.138;24.742;2023-05-23T07:21:22;9.88;;;5.58;;
79759;SDS011;69248;42.138;24.742;2023-05-23T07:23:50;8.05;;;4.80;;
79759;SDS011;69248;42.138;24.742;2023-05-23T07:26:17;7.03;;;5.05;;
79759;SDS011;69248;42.138;24.742;2023-05-23T07:28:45;9.13;;;5.08;;
79759;SDS011;69248;42.138;24.742;2023-05-23T07:31:27;8.35;;;5.95;;
79759;SDS011;69248;42.138;24.742;2023-05-23T07:33:43;14.37;;;6.20;;
79759;SDS011;69248;42.138;24.742;2023-05-23T07:36:11;11.18;;;5.28;;
79759;SDS011;69248;42.138;24.742;2023-05-23T07:38:38;11.15;;;5.60;;
79759;SDS011;69248;42.138;24.742;2023-05-23T07:41:06;11.38;;;5.12;;
79759;SDS011;69248;42.138;24.742;2023-05-23T07:43:33;7.17;;;4.60;;
79759;SDS011;69248;42.138;24.742;2023-05-23T07:46:01;8.38;;;3.98;;
79759;SDS011;69248;42.138;24.742;2023-05-23T07:48:28;8.03;;;4.95;;
79759;SDS011;69248;42.138;24.742;2023-05-23T07:50:58;10.53;;;5.30;;
79759;SDS011;69248;42.138;24.742;2023-05-23T07:53:25;7.33;;;5.22;;
79759;SDS011;69248;42.138;24.742;2023-05-23T07:55:53;8.40;;;4.70;;
79759;SDS011;69248;42.138;24.742;2023-05-23T07:58:21;8.15;;;4.95;;
79759;SDS011;69248;42.138;24.742;2023-05-23T08:00:48;13.75;;;5.30;;
79759;SDS011;69248;42.138;24.742;2023-05-23T08:03:16;11.18;;;4.95;;
79759;SDS011;69248;42.138;24.742;2023-05-23T08:05:44;12.28;;;4.92;;
79759;SDS011;69248;42.138;24.742;2023-05-23T08:08:12;6.95;;;4.50;;
79759;SDS011;69248;42.138;24.742;2023-05-23T08:10:40;8.13;;;4.20;;
79759;SDS011;69248;42.138;24.742;2023-05-23T08:13:10;8.40;;;4.80;;
79759;SDS011;69248;42.138;24.742;2023-05-23T08:15:38;9.70;;;5.53;;
79759;SDS011;69248;42.138;24.742;2023-05-23T08:18:05;12.13;;;4.67;;
79759;SDS011;69248;42.138;24.742;2023-05-23T08:20:33;7.22;;;4.20;;
79759;SDS011;69248;42.138;24.742;2023-05-23T08:23:01;9.70;;;4.87;;
79759;SDS011;69248;42.138;24.742;2023-05-23T08:25:29;4.67;;;3.65;;
79759;SDS011;69248;42.138;24.742;2023-05-23T08:27:56;8.63;;;4.55;;
79759;SDS011;69248;42.138;24.742;2023-05-23T08:30:25;11.80;;;5.08;;
79759;SDS011;69248;42.138;24.742;2023-05-23T08:32:54;5.28;;;3.52;;
79759;SDS011;69248;42.138;24.742;2023-05-23T08:35:22;9.55;;;4.55;;
79759;SDS011;69248;42.138;24.742;2023-05-23T08:37:50;10.95;;;5.12;;
79759;SDS011;69248;42.138;24.742;2023-05-23T08:40:22;9.93;;;4.70;;
79759;SDS011;69248;42.138;24.742;2023-05-23T08:42:53;9.70;;;4.72;;
79759;SDS011;69248;42.138;24.742;2023-05-23T08:45:17;10.48;;;5.60;;
79759;SDS011;69248;42.138;24.742;2023-05-23T08:47:45;11.15;;;6.67;;
79759;SDS011;69248;42.138;24.742;2023-05-23T08:50:14;10.48;;;5.10;;
79759;SDS011;69248;42.138;24.742;2023-05-23T08:52:55;4.87;;;3.90;;
79759;SDS011;69248;42.138;24.742;2023-05-23T08:55:26;8.48;;;4.42;;
79759;SDS011;69248;42.138;24.742;2023-05-23T08:57:59;8.63;;;5.15;;
79759;SDS011;69248;42.138;24.742;2023-05-23T09:00:28;10.08;;;4.03;;
79759;SDS011;69248;42.138;24.742;2023-05-23T09:02:56;8.63;;;4.50;;
79759;SDS011;69248;42.138;24.742;2023-05-23T09:05:25;5.17;;;4.37;;
79759;SDS011;69248;42.138;24.742;2023-05-23T09:07:52;6.22;;;4.45;;
79759;SDS011;69248;42.138;24.742;2023-05-23T09:10:21;7.00;;;3.70;;
79759;SDS011;69248;42.138;24.742;2023-05-23T09:12:54;6.75;;;3.70;;
79759;SDS011;69248;42.138;24.742;2023-05-23T09:15:18;8.30;;;4.10;;
79759;SDS011;69248;42.138;24.742;2023-05-23T09:17:47;11.53;;;4.58;;
79759;SDS011;69248;42.138;24.742;2023-05-23T09:20:15;6.28;;;4.08;;
79759;SDS011;69248;42.138;24.742;2023-05-23T09:22:44;6.00;;;4.00;;
79759;SDS011;69248;42.138;24.742;2023-05-23T09:25:13;8.68;;;4.20;;
79759;SDS011;69248;42.138;24.742;2023-05-23T09:27:41;12.05;;;4.92;;
79759;SDS011;69248;42.138;24.742;2023-05-23T09:30:09;5.80;;;4.45;;
79759;SDS011;69248;42.138;24.742;2023-05-23T09:32:39;12.20;;;5.37;;
79759;SDS011;69248;42.138;24.742;2023-05-23T09:35:07;9.80;;;4.92;;
79759;SDS011;69248;42.138;24.742;2023-05-23T09:37:39;6.28;;;3.35;;
79759;SDS011;69248;42.138;24.742;2023-05-23T09:40:10;12.78;;;4.05;;
79759;SDS011;69248;42.138;24.742;2023-05-23T09:42:43;8.03;;;4.87;;
79759;SDS011;69248;42.138;24.742;2023-05-23T09:45:12;8.70;;;4.15;;
79759;SDS011;69248;42.138;24.742;2023-05-23T09:47:50;8.50;;;3.47;;
79759;SDS011;69248;42.138;24.742;2023-05-23T09:50:18;7.62;;;4.30;;
79759;SDS011;69248;42.138;24.742;2023-05-23T09:52:46;4.62;;;3.98;;
79759;SDS011;69248;42.138;24.742;2023-05-23T09:55:14;5.97;;;4.17;;
79759;SDS011;69248;42.138;24.742;2023-05-23T09:57:42;12.15;;;5.40;;
79759;SDS011;69248;42.138;24.742;2023-05-23T10:00:10;7.45;;;4.85;;
79759;SDS011;69248;42.138;24.742;2023-05-23T10:08:17;13.38;;;4.33;;
79759;SDS011;69248;42.138;24.742;2023-05-23T10:13:48;9.78;;;4.40;;
79759;SDS011;69248;42.138;24.742;2023-05-23T10:16:13;10.75;;;5.12;;
79759;SDS011;69248;42.138;24.742;2023-05-23T10:18:44;7.55;;;4.17;;
79759;SDS011;69248;42.138;24.742;2023-05-23T10:21:17;8.48;;;3.87;;
79759;SDS011;69248;42.138;24.742;2023-05-23T10:23:45;8.38;;;4.85;;
79759;SDS011;69248;42.138;24.742;2023-05-23T10:26:14;7.65;;;4.10;;
79759;SDS011;69248;42.138;24.742;2023-05-23T10:28:43;17.17;;;5.97;;
79759;SDS011;69248;42.138;24.742;2023-05-23T11:51:41;18.17;;;4.42;;
79759;SDS011;69248;42.138;24.742;2023-05-23T11:54:09;10.40;;;4.60;;
79759;SDS011;69248;42.138;24.742;2023-05-23T11:56:39;10.78;;;4.95;;
79759;SDS011;69248;42.138;24.742;2023-05-23T11:59:07;14.43;;;7.90;;
79759;SDS011;69248;42.138;24.742;2023-05-23T12:01:35;21.05;;;4.70;;
79759;SDS011;69248;42.138;24.742;2023-05-23T12:04:08;15.72;;;3.75;;
79759;SDS011;69248;42.138;24.742;2023-05-23T12:06:34;9.05;;;4.78;;
79759;SDS011;69248;42.138;24.742;2023-05-23T12:09:03;8.68;;;3.83;;
79759;SDS011;69248;42.138;24.742;2023-05-23T12:11:33;24.37;;;4.20;;
79759;SDS011;69248;42.138;24.742;2023-05-23T12:14:01;12.43;;;3.70;;
79759;SDS011;69248;42.138;24.742;2023-05-23T12:16:31;8.43;;;2.95;;
79759;SDS011;69248;42.138;24.742;2023-05-23T12:19:00;17.40;;;4.67;;
79759;SDS011;69248;42.138;24.742;2023-05-23T12:21:44;10.70;;;4.37;;
79759;SDS011;69248;42.138;24.742;2023-05-23T12:26:46;4.80;;;3.17;;
79759;SDS011;69248;42.138;24.742;2023-05-23T12:29:16;16.30;;;4.85;;
79759;SDS011;69248;42.138;24.742;2023-05-23T12:31:48;8.20;;;3.67;;
79759;SDS011;69248;42.138;24.742;2023-05-23T12:34:18;13.80;;;4.20;;
79759;SDS011;69248;42.138;24.742;2023-05-23T12:36:46;6.25;;;3.85;;
79759;SDS011;69248;42.138;24.742;2023-05-23T12:39:14;4.92;;;3.15;;
79759;SDS011;69248;42.138;24.742;2023-05-23T12:41:44;5.65;;;3.62;;
79759;SDS011;69248;42.138;24.742;2023-05-23T12:44:16;12.35;;;3.72;;
79759;SDS011;69248;42.138;24.742;2023-05-23T12:46:44;8.68;;;4.00;;
79759;SDS011;69248;42.138;24.742;2023-05-23T12:49:12;5.97;;;3.17;;
79759;SDS011;69248;42.138;24.742;2023-05-23T12:51:40;11.75;;;3.85;;
79759;SDS011;69248;42.138;24.742;2023-05-23T12:54:08;12.25;;;5.72;;
79759;SDS011;69248;42.138;24.742;2023-05-23T12:56:36;8.80;;;3.33;;
79759;SDS011;69248;42.138;24.742;2023-05-23T12:59:03;8.75;;;3.70;;
79759;SDS011;69248;42.138;24.742;2023-05-23T13:01:31;6.60;;;3.33;;
79759;SDS011;69248;42.138;24.742;2023-05-23T13:03:59;7.67;;;3.45;;
79759;SDS011;69248;42.138;24.742;2023-05-23T13:06:27;10.88;;;3.47;;
79759;SDS011;69248;42.138;24.742;2023-05-23T13:08:56;12.40;;;4.75;;
79759;SDS011;69248;42.138;24.742;2023-05-23T13:11:23;8.05;;;4.95;;
79759;SDS011;69248;42.138;24.742;2023-05-23T13:13:51;11.90;;;4.33;;
79759;SDS011;69248;42.138;24.742;2023-05-23T13:16:19;7.58;;;4.35;;
79759;SDS011;69248;42.138;24.742;2023-05-23T13:18:47;6.87;;;4.58;;
79759;SDS011;69248;42.138;24.742;2023-05-23T13:21:14;5.65;;;4.00;;
79759;SDS011;69248;42.138;24.742;2023-05-23T13:23:42;7.20;;;3.55;;
79759;SDS011;69248;42.138;24.742;2023-05-23T13:26:10;5.00;;;3.77;;
79759;SDS011;69248;42.138;24.742;2023-05-23T13:28:39;11.15;;;3.80;;
79759;SDS011;69248;42.138;24.742;2023-05-23T13:31:06;13.43;;;4.33;;
79759;SDS011;69248;42.138;24.742;2023-05-23T13:33:34;7.05;;;3.72;;
79759;SDS011;69248;42.138;24.742;2023-05-23T13:36:03;7.03;;;3.45;;
79759;SDS011;69248;42.138;24.742;2023-05-23T13:38:31;10.53;;;3.60;;
79759;SDS011;69248;42.138;24.742;2023-05-23T13:40:58;15.23;;;3.75;;
79759;SDS011;69248;42.138;24.742;2023-05-23T13:43:26;10.88;;;5.85;;
79759;SDS011;69248;42.138;24.742;2023-05-23T13:45:53;12.45;;;5.72;;
79759;SDS011;69248;42.138;24.742;2023-05-23T13:48:21;13.18;;;4.37;;
79759;SDS011;69248;42.138;24.742;2023-05-23T13:50:49;9.88;;;4.78;;
79759;SDS011;69248;42.138;24.742;2023-05-23T13:53:16;5.22;;;3.40;;
79759;SDS011;69248;42.138;24.742;2023-05-23T13:55:44;8.25;;;3.92;;
79759;SDS011;69248;42.138;24.742;2023-05-23T13:58:11;7.60;;;3.42;;
79759;SDS011;69248;42.138;24.742;2023-05-23T14:00:39;7.12;;;3.72;;
79759;SDS011;69248;42.138;24.742;2023-05-23T14:03:07;10.00;;;2.92;;
79759;SDS011;69248;42.138;24.742;2023-05-23T14:05:35;6.10;;;3.37;;
79759;SDS011;69248;42.138;24.742;2023-05-23T14:08:03;6.30;;;3.70;;
79759;SDS011;69248;42.138;24.742;2023-05-23T14:10:31;13.45;;;4.20;;
79759;SDS011;69248;42.138;24.742;2023-05-23T14:12:59;4.72;;;3.67;;
79759;SDS011;69248;42.138;24.742;2023-05-23T14:15:27;14.70;;;4.10;;
79759;SDS011;69248;42.138;24.742;2023-05-23T14:17:54;8.20;;;3.00;;
79759;SDS011;69248;42.138;24.742;2023-05-23T14:20:22;8.08;;;3.95;;
79759;SDS011;69248;42.138;24.742;2023-05-23T14:22:50;8.43;;;3.60;;
79759;SDS011;69248;42.138;24.742;2023-05-23T14:25:17;6.42;;;3.95;;
79759;SDS011;69248;42.138;24.742;2023-05-23T14:27:45;7.12;;;3.45;;
79759;SDS011;69248;42.138;24.742;2023-05-23T14:30:13;5.10;;;3.15;;
79759;SDS011;69248;42.138;24.742;2023-05-23T14:32:41;5.50;;;3.67;;
79759;SDS011;69248;42.138;24.742;2023-05-23T14:35:09;5.97;;;3.58;;
79759;SDS011;69248;42.138;24.742;2023-05-23T14:37:37;7.20;;;3.37;;
79759;SDS011;69248;42.138;24.742;2023-05-23T14:40:05;9.03;;;3.30;;
79759;SDS011;69248;42.138;24.742;2023-05-23T14:42:35;11.90;;;4.13;;
79759;SDS011;69248;42.138;24.742;2023-05-23T14:45:02;12.70;;;4.30;;
79759;SDS011;69248;42.138;24.742;2023-05-23T14:47:31;6.80;;;3.47;;
79759;SDS011;69248;42.138;24.742;2023-05-23T14:49:58;6.08;;;3.92;;
79759;SDS011;69248;42.138;24.742;2023-05-23T14:52:26;5.60;;;3.35;;
79759;SDS011;69248;42.138;24.742;2023-05-23T14:54:54;10.50;;;4.62;;
79759;SDS011;69248;42.138;24.742;2023-05-23T14:57:24;8.83;;;3.90;;
79759;SDS011;69248;42.138;24.742;2023-05-23T14:59:51;10.83;;;3.73;;
79759;SDS011;69248;42.138;24.742;2023-05-23T15:02:19;10.53;;;3.85;;
79759;SDS011;69248;42.138;24.742;2023-05-23T15:04:47;7.80;;;3.67;;
79759;SDS011;69248;42.138;24.742;2023-05-23T15:07:14;10.13;;;4.70;;
79759;SDS011;69248;42.138;24.742;2023-05-23T15:09:43;6.22;;;3.77;;
79759;SDS011;69248;42.138;24.742;2023-05-23T15:12:12;7.67;;;3.05;;
79759;SDS011;69248;42.138;24.742;2023-05-23T15:14:43;8.20;;;3.33;;
79759;SDS011;69248;42.138;24.742;2023-05-23T15:17:11;8.43;;;4.08;;
79759;SDS011;69248;42.138;24.742;2023-05-23T15:19:40;6.72;;;3.83;;
79759;SDS011;69248;42.138;24.742;2023-05-23T15:22:09;15.68;;;5.05;;
79759;SDS011;69248;42.138;24.742;2023-05-23T15:24:37;8.88;;;3.50;;
79759;SDS011;69248;42.138;24.742;2023-05-23T15:27:04;9.40;;;3.83;;
79759;SDS011;69248;42.138;24.742;2023-05-23T15:29:32;10.60;;;3.92;;
79759;SDS011;69248;42.138;24.742;2023-05-23T15:32:01;7.33;;;4.30;;
79759;SDS011;69248;42.138;24.742;2023-05-23T15:34:29;5.75;;;4.05;;
79759;SDS011;69248;42.138;24.742;2023-05-23T15:36:56;4.60;;;3.70;;
79759;SDS011;69248;42.138;24.742;2023-05-23T15:39:26;5.40;;;3.65;;
79759;SDS011;69248;42.138;24.742;2023-05-23T15:41:55;9.00;;;3.90;;
79759;SDS011;69248;42.138;24.742;2023-05-23T15:44:23;15.20;;;4.92;;
79759;SDS011;69248;42.138;24.742;2023-05-23T15:46:50;9.50;;;4.35;;
79759;SDS011;69248;42.138;24.742;2023-05-23T15:49:18;11.05;;;4.10;;
79759;SDS011;69248;42.138;24.742;2023-05-23T15:51:45;6.92;;;3.85;;
79759;SDS011;69248;42.138;24.742;2023-05-23T15:54:13;4.42;;;3.45;;
79759;SDS011;69248;42.138;24.742;2023-05-23T15:56:41;6.53;;;3.70;;
79759;SDS011;69248;42.138;24.742;2023-05-23T15:59:08;7.87;;;4.42;;
79759;SDS011;69248;42.138;24.742;2023-05-23T16:01:36;6.80;;;4.60;;
79759;SDS011;69248;42.138;24.742;2023-05-23T16:04:04;10.65;;;4.10;;
79759;SDS011;69248;42.138;24.742;2023-05-23T16:06:31;15.90;;;8.58;;
79759;SDS011;69248;42.138;24.742;2023-05-23T16:08:59;8.95;;;4.50;;
79759;SDS011;69248;42.138;24.742;2023-05-23T16:11:26;8.18;;;5.70;;
79759;SDS011;69248;42.138;24.742;2023-05-23T16:13:54;13.10;;;5.87;;
79759;SDS011;69248;42.138;24.742;2023-05-23T16:16:22;16.77;;;5.00;;